Time;durP1;ratioP1;P1;durP2;ratioP2;P2;SDS_P1;SDS_P2;PMS_P1;PMS_P2;Temp;Humidity;BMP_temperature;BMP_pressure;BME280_temperature;BME280_humidity;BME280_pressure;Samples;Min_cycle;Max_cycle;Signal;HPM_P1;HPM_P2
2024/01/05 00:02:14;;;;;;;6.30;2.13;;;9.90;99.90;;;;;;5088030;27;20203;-60
2024/01/05 00:04:42;;;;;;;6.80;2.07;;;9.90;99.90;;;;;;5085457;28;20234;-60
2024/01/05 00:07:11;;;;;;;8.23;2.43;;;10.00;99.90;;;;;;5084617;28;20332;-59
2024/01/05 00:09:39;;;;;;;8.10;2.70;;;10.00;99.90;;;;;;5088244;28;20759;-59
2024/01/05 00:12:08;;;;;;;11.27;2.43;;;9.90;99.90;;;;;;5088582;28;20219;-60
2024/01/05 00:14:39;;;;;;;6.67;2.50;;;10.00;99.90;;;;;;5091045;28;20250;-59
2024/01/05 00:17:07;;;;;;;9.10;2.10;;;9.90;99.90;;;;;;5088536;28;20194;-60
2024/01/05 00:19:35;;;;;;;7.20;2.30;;;10.00;99.90;;;;;;5088493;28;20685;-59
2024/01/05 00:22:04;;;;;;;7.30;2.07;;;10.00;99.90;;;;;;5084114;28;20238;-59
2024/01/05 00:24:32;;;;;;;6.87;2.53;;;10.00;99.90;;;;;;5085406;28;20219;-61
2024/01/05 00:27:01;;;;;;;8.20;2.37;;;10.10;99.90;;;;;;5087817;28;20764;-60
2024/01/05 00:29:32;;;;;;;5.93;2.70;;;10.10;99.90;;;;;;5090402;28;20246;-60
2024/01/05 00:32:01;;;;;;;4.67;1.90;;;10.10;99.90;;;;;;5087644;28;20183;-60
2024/01/05 00:34:30;;;;;;;8.43;2.60;;;10.10;99.90;;;;;;5087167;28;20220;-60
2024/01/05 00:36:58;;;;;;;5.20;2.23;;;10.10;99.90;;;;;;5087599;28;20249;-60
2024/01/05 00:39:26;;;;;;;7.93;2.60;;;10.10;99.90;;;;;;5084541;28;20230;-60
2024/01/05 00:41:54;;;;;;;7.23;2.40;;;10.10;99.90;;;;;;5085061;28;20240;-60
2024/01/05 00:44:23;;;;;;;6.97;2.20;;;10.20;99.90;;;;;;5084184;28;20231;-60
2024/01/05 00:46:51;;;;;;;5.30;2.00;;;10.20;99.90;;;;;;5086372;28;20188;-60
2024/01/05 00:49:20;;;;;;;4.07;1.90;;;10.20;99.90;;;;;;5086367;28;20235;-60
2024/01/05 00:51:49;;;;;;;10.70;2.27;;;10.20;99.90;;;;;;5087726;28;20227;-60
2024/01/05 00:54:17;;;;;;;4.83;2.20;;;10.30;99.90;;;;;;5085604;28;20703;-59
2024/01/05 00:56:46;;;;;;;3.57;2.13;;;10.30;99.90;;;;;;5081853;28;20276;-60
2024/01/05 00:59:14;;;;;;;9.40;2.43;;;10.30;99.90;;;;;;5086312;28;20193;-59
2024/01/05 01:01:42;;;;;;;7.53;2.40;;;10.30;99.90;;;;;;5088508;28;20191;-60
2024/01/05 01:04:11;;;;;;;7.73;2.13;;;10.30;99.90;;;;;;5084820;28;20230;-60
2024/01/05 01:06:40;;;;;;;6.83;1.80;;;10.30;99.90;;;;;;5088395;28;20907;-59
2024/01/05 01:09:10;;;;;;;4.53;2.13;;;10.30;99.90;;;;;;5082746;28;20238;-59
2024/01/05 01:11:38;;;;;;;4.73;2.43;;;10.30;99.90;;;;;;5084730;28;20272;-60
2024/01/05 01:14:06;;;;;;;5.40;2.07;;;10.30;99.90;;;;;;5087327;28;20192;-59
2024/01/05 01:16:34;;;;;;;7.70;2.70;;;10.40;99.90;;;;;;5084849;28;20199;-59
2024/01/05 01:19:03;;;;;;;3.93;2.10;;;10.40;99.90;;;;;;5088063;28;20673;-59
2024/01/05 01:21:32;;;;;;;6.30;1.77;;;10.40;99.90;;;;;;5085424;28;20223;-60
2024/01/05 01:24:02;;;;;;;8.57;2.73;;;10.40;99.90;;;;;;5086465;28;20226;-59
2024/01/05 01:26:30;;;;;;;7.60;1.97;;;10.40;99.90;;;;;;5085254;28;20311;-60
2024/01/05 01:28:58;;;;;;;6.37;2.20;;;10.40;99.90;;;;;;5086846;28;20207;-60
2024/01/05 01:31:29;;;;;;;9.77;1.93;;;10.40;99.90;;;;;;5088025;28;20224;-59
2024/01/05 01:33:58;;;;;;;7.57;2.13;;;10.40;99.90;;;;;;5085899;28;20215;-59
2024/01/05 01:36:26;;;;;;;6.03;2.10;;;10.50;99.90;;;;;;5083233;28;20215;-59
2024/01/05 01:38:54;;;;;;;5.40;2.00;;;10.50;99.90;;;;;;5085108;28;20604;-59
2024/01/05 01:41:24;;;;;;;10.60;2.20;;;10.50;99.90;;;;;;5081535;28;20269;-60
2024/01/05 01:43:52;;;;;;;5.00;2.00;;;10.40;99.90;;;;;;5086023;28;20711;-59
2024/01/05 01:46:22;;;;;;;6.57;2.33;;;10.40;99.90;;;;;;5085766;28;20214;-59
2024/01/05 01:48:51;;;;;;;8.03;2.40;;;10.40;99.90;;;;;;5085468;28;20692;-59
2024/01/05 01:51:20;;;;;;;9.77;2.03;;;10.40;99.90;;;;;;5082602;28;20624;-60
2024/01/05 01:53:48;;;;;;;4.00;1.80;;;10.40;99.90;;;;;;5087313;28;20709;-59
2024/01/05 01:56:17;;;;;;;4.53;1.93;;;10.50;99.90;;;;;;5086830;28;20192;-59
2024/01/05 01:58:47;;;;;;;5.60;2.10;;;10.50;99.90;;;;;;5081470;28;20195;-60
2024/01/05 02:01:16;;;;;;;8.27;2.10;;;10.50;99.90;;;;;;5084250;28;20592;-59
2024/01/05 02:03:44;;;;;;;5.33;1.90;;;10.50;99.90;;;;;;5081447;28;20314;-59
2024/01/05 02:06:13;;;;;;;5.10;1.90;;;10.50;99.90;;;;;;5083096;28;20708;-59
2024/01/05 02:08:41;;;;;;;11.20;2.20;;;10.50;99.90;;;;;;5084052;28;20240;-59
2024/01/05 02:11:10;;;;;;;6.73;1.73;;;10.40;99.90;;;;;;5083663;28;20614;-59
2024/01/05 02:13:38;;;;;;;8.47;2.40;;;10.40;99.90;;;;;;5085066;28;20198;-59
2024/01/05 02:16:07;;;;;;;6.47;2.03;;;10.50;99.90;;;;;;5080532;28;20239;-60
2024/01/05 02:18:36;;;;;;;4.67;1.87;;;10.40;99.90;;;;;;5082261;28;20228;-59
2024/01/05 02:21:06;;;;;;;6.03;1.87;;;10.40;99.90;;;;;;5088728;28;20215;-59
2024/01/05 02:23:36;;;;;;;7.97;2.43;;;10.40;99.90;;;;;;5085807;28;20693;-60
2024/01/05 02:26:05;;;;;;;4.30;2.00;;;10.50;99.90;;;;;;5084004;28;20620;-59
2024/01/05 02:28:33;;;;;;;5.50;1.97;;;10.40;99.90;;;;;;5083301;28;20654;-59
2024/01/05 02:31:01;;;;;;;8.73;2.00;;;10.40;99.90;;;;;;5084448;28;20227;-59
2024/01/05 02:33:30;;;;;;;4.73;2.30;;;10.40;99.90;;;;;;5083071;28;20207;-59
2024/01/05 02:35:58;;;;;;;7.10;2.23;;;10.40;99.90;;;;;;5085576;28;20739;-59
2024/01/05 02:38:26;;;;;;;4.40;2.20;;;10.30;99.90;;;;;;5081986;28;20236;-59
2024/01/05 02:40:57;;;;;;;6.97;2.20;;;10.30;99.90;;;;;;5086055;28;20196;-59
2024/01/05 02:43:26;;;;;;;3.00;1.77;;;10.40;99.90;;;;;;5079970;28;20223;-59
2024/01/05 02:45:54;;;;;;;5.93;1.83;;;10.30;99.90;;;;;;5083385;28;20238;-59
2024/01/05 02:48:22;;;;;;;8.07;2.00;;;10.30;99.90;;;;;;5081193;28;20218;-59
2024/01/05 02:50:51;;;;;;;5.17;1.80;;;10.30;99.90;;;;;;5084009;28;20227;-59
2024/01/05 02:53:19;;;;;;;6.60;1.87;;;10.30;99.90;;;;;;5086497;28;20789;-59
2024/01/05 02:55:47;;;;;;;4.20;1.60;;;10.30;99.90;;;;;;5086333;28;20200;-59
2024/01/05 02:58:17;;;;;;;6.70;2.30;;;10.30;99.90;;;;;;5078920;27;20219;-59
2024/01/05 03:00:45;;;;;;;7.40;2.03;;;10.30;99.90;;;;;;5085539;27;20306;-59
2024/01/05 03:03:13;;;;;;;3.73;1.93;;;10.30;99.90;;;;;;5079666;28;20664;-60
2024/01/05 03:05:42;;;;;;;5.53;1.70;;;10.20;99.90;;;;;;5082465;28;20219;-60
2024/01/05 03:08:10;;;;;;;5.00;1.73;;;10.20;99.90;;;;;;5078647;28;20199;-61
2024/01/05 03:10:38;;;;;;;2.87;1.60;;;10.20;99.90;;;;;;5084253;28;20290;-59
2024/01/05 03:13:07;;;;;;;8.60;1.40;;;10.10;99.90;;;;;;5080790;28;20222;-59
2024/01/05 03:15:36;;;;;;;2.80;1.40;;;10.10;99.90;;;;;;5084676;28;20228;-59
2024/01/05 03:18:05;;;;;;;3.13;1.30;;;10.10;99.90;;;;;;5082376;28;20293;-58
2024/01/05 03:20:33;;;;;;;5.03;1.17;;;10.00;99.90;;;;;;5079447;28;20276;-59
2024/01/05 03:23:02;;;;;;;1.20;1.20;;;10.00;68.80;;;;;;5084168;28;20595;-59
2024/01/05 03:25:30;;;;;;;1.30;1.20;;;9.90;71.70;;;;;;5085899;28;20223;-59
2024/01/05 03:27:58;;;;;;;5.03;1.37;;;9.90;75.90;;;;;;5088963;27;20571;-59
2024/01/05 03:30:26;;;;;;;1.90;1.00;;;9.80;65.50;;;;;;5088468;27;20222;-59
2024/01/05 03:32:56;;;;;;;2.93;1.10;;;9.70;73.30;;;;;;5090817;28;20713;-59
2024/01/05 03:35:25;;;;;;;2.40;1.10;;;9.60;90.00;;;;;;5088857;28;20236;-59
2024/01/05 03:37:53;;;;;;;2.30;1.07;;;9.50;91.50;;;;;;5089404;28;20565;-59
2024/01/05 03:40:21;;;;;;;1.20;1.10;;;9.50;91.90;;;;;;5089879;28;20251;-59
2024/01/05 03:42:49;;;;;;;2.53;1.07;;;9.50;91.10;;;;;;5095357;28;20897;-59
2024/01/05 03:45:17;;;;;;;1.17;1.17;;;9.50;86.90;;;;;;5087331;28;20219;-59
2024/01/05 03:47:45;;;;;;;1.13;1.00;;;9.50;86.00;;;;;;5093964;28;20227;-60
2024/01/05 03:50:15;;;;;;;3.90;1.30;;;9.50;81.90;;;;;;5088225;28;20550;-59
2024/01/05 03:52:44;;;;;;;1.30;1.20;;;9.40;87.90;;;;;;5089977;28;20553;-59
2024/01/05 03:55:14;;;;;;;1.20;1.10;;;9.40;90.30;;;;;;5094189;27;20203;-59
2024/01/05 03:57:42;;;;;;;1.10;1.00;;;9.40;85.00;;;;;;5087479;28;20306;-59
2024/01/05 04:00:12;;;;;;;1.00;1.00;;;9.30;93.70;;;;;;5090297;28;20673;-59
2024/01/05 04:02:40;;;;;;;2.60;1.20;;;9.20;98.40;;;;;;5087177;28;20238;-59
2024/01/05 04:05:09;;;;;;;2.47;1.10;;;9.10;99.90;;;;;;5087633;28;20219;-59
2024/01/05 04:07:39;;;;;;;1.47;1.30;;;8.90;99.90;;;;;;5090681;28;20192;-59
2024/01/05 04:10:08;;;;;;;1.47;1.40;;;8.70;99.90;;;;;;5087929;28;20760;-59
2024/01/05 04:12:36;;;;;;;2.20;1.03;;;8.50;99.90;;;;;;5090516;28;20700;-59
2024/01/05 04:15:07;;;;;;;3.33;1.20;;;8.40;99.90;;;;;;5088100;28;20227;-59
2024/01/05 04:17:35;;;;;;;1.10;1.10;;;8.30;99.90;;;;;;5094251;28;20700;-59
2024/01/05 04:20:04;;;;;;;1.37;1.27;;;8.20;99.90;;;;;;5086486;28;20191;-59
2024/01/05 04:22:33;;;;;;;3.90;1.23;;;8.10;99.90;;;;;;5090346;28;20201;-59
2024/01/05 04:25:02;;;;;;;1.10;1.10;;;8.10;99.90;;;;;;5091516;28;20214;-59
2024/01/05 04:27:30;;;;;;;1.13;1.00;;;8.10;99.90;;;;;;5087803;28;20269;-60
2024/01/05 04:29:59;;;;;;;4.67;1.10;;;8.10;99.90;;;;;;5089855;27;20220;-60
2024/01/05 04:32:27;;;;;;;2.00;1.17;;;8.10;99.90;;;;;;5091232;27;20226;-59
2024/01/05 04:34:55;;;;;;;1.23;1.17;;;8.10;99.90;;;;;;5085814;28;20287;-60
2024/01/05 04:37:23;;;;;;;1.00;1.00;;;8.10;99.90;;;;;;5087936;27;20224;-60
2024/01/05 04:39:51;;;;;;;1.33;1.23;;;8.00;99.90;;;;;;5085726;28;20311;-60
2024/01/05 04:42:21;;;;;;;1.00;1.00;;;8.00;99.90;;;;;;5081874;28;20315;-60
2024/01/05 04:44:50;;;;;;;1.30;1.20;;;8.00;99.90;;;;;;5087287;28;20285;-60
2024/01/05 04:47:19;;;;;;;2.33;1.13;;;8.00;99.90;;;;;;5084947;28;20199;-59
2024/01/05 04:49:47;;;;;;;1.27;1.17;;;7.90;99.90;;;;;;5084910;28;20296;-60
2024/01/05 04:52:15;;;;;;;1.00;1.00;;;7.80;99.90;;;;;;5087136;28;20543;-60
2024/01/05 04:54:44;;;;;;;1.60;1.20;;;7.70;99.90;;;;;;5087204;28;20306;-59
2024/01/05 04:57:12;;;;;;;1.00;1.00;;;7.60;99.90;;;;;;5089791;28;20222;-60
2024/01/05 04:59:43;;;;;;;2.00;1.33;;;7.60;99.90;;;;;;5085930;28;20220;-58
2024/01/05 05:02:11;;;;;;;1.30;1.20;;;7.60;99.90;;;;;;5088053;28;20196;-59
2024/01/05 05:04:40;;;;;;;1.13;1.03;;;7.50;99.90;;;;;;5086677;28;20255;-58
2024/01/05 05:07:08;;;;;;;1.10;1.10;;;7.50;99.90;;;;;;5087203;28;20222;-58
2024/01/05 05:09:36;;;;;;;1.00;1.00;;;7.50;99.90;;;;;;5086916;28;20220;-58
2024/01/05 05:12:05;;;;;;;2.33;1.20;;;7.50;99.90;;;;;;5085623;28;20223;-59
2024/01/05 05:14:34;;;;;;;1.20;1.10;;;7.50;99.90;;;;;;5086437;27;20953;-59
2024/01/05 05:17:04;;;;;;;1.27;1.00;;;7.50;99.90;;;;;;5084774;28;20569;-59
2024/01/05 05:19:33;;;;;;;1.73;1.63;;;7.50;99.90;;;;;;5089482;28;20657;-59
2024/01/05 05:22:01;;;;;;;4.10;1.30;;;7.50;99.90;;;;;;5087613;28;20225;-59
2024/01/05 05:24:29;;;;;;;1.50;1.10;;;7.40;99.90;;;;;;5088700;28;20227;-59
2024/01/05 05:26:58;;;;;;;1.43;1.03;;;7.50;99.90;;;;;;5085643;28;20235;-59
2024/01/05 05:29:26;;;;;;;1.20;1.20;;;7.50;99.90;;;;;;5086479;28;20551;-59
2024/01/05 05:31:54;;;;;;;1.30;1.20;;;7.40;99.90;;;;;;5087111;28;20196;-59
2024/01/05 05:34:24;;;;;;;1.30;1.10;;;7.30;99.90;;;;;;5086074;27;20246;-59
2024/01/05 05:36:52;;;;;;;3.27;1.63;;;7.30;99.90;;;;;;5087086;28;20219;-59
2024/01/05 05:39:20;;;;;;;1.60;1.40;;;7.20;99.90;;;;;;5087841;28;20219;-59
2024/01/05 05:41:48;;;;;;;1.30;1.30;;;7.20;99.90;;;;;;5089094;28;20265;-59
2024/01/05 05:44:17;;;;;;;3.47;1.40;;;7.20;99.90;;;;;;5088975;27;20727;-60
2024/01/05 05:46:45;;;;;;;1.40;1.17;;;7.20;99.90;;;;;;5088410;28;20223;-59
2024/01/05 05:49:13;;;;;;;3.80;1.30;;;7.20;99.90;;;;;;5085561;28;20223;-59
2024/01/05 05:51:44;;;;;;;5.20;1.30;;;7.10;99.90;;;;;;5084648;28;20285;-59
2024/01/05 05:54:13;;;;;;;1.90;1.57;;;7.10;99.90;;;;;;5085408;28;20218;-59
2024/01/05 05:56:41;;;;;;;1.23;1.13;;;7.10;99.90;;;;;;5083039;28;20227;-59
2024/01/05 05:59:10;;;;;;;3.50;1.50;;;7.10;99.90;;;;;;5086707;28;20187;-58
2024/01/05 06:01:38;;;;;;;4.30;1.57;;;7.10;99.90;;;;;;5082107;28;20665;-59
2024/01/05 06:04:07;;;;;;;1.50;1.30;;;7.10;99.90;;;;;;5082724;28;20697;-59
2024/01/05 06:06:36;;;;;;;1.37;1.30;;;7.10;99.90;;;;;;5084097;28;20223;-58
2024/01/05 06:09:07;;;;;;;1.33;1.30;;;7.10;99.90;;;;;;5083770;28;20231;-58
2024/01/05 06:11:35;;;;;;;1.87;1.50;;;7.10;99.90;;;;;;5085679;28;20310;-59
2024/01/05 06:14:04;;;;;;;1.30;1.20;;;7.00;99.90;;;;;;5082766;28;20191;-57
2024/01/05 06:16:32;;;;;;;1.23;1.20;;;7.00;99.90;;;;;;5081065;28;20679;-59
2024/01/05 06:19:00;;;;;;;2.53;1.50;;;7.00;99.90;;;;;;5081468;28;20216;-59
2024/01/05 06:21:29;;;;;;;6.20;1.63;;;7.00;99.90;;;;;;5081260;28;20227;-59
2024/01/05 06:23:57;;;;;;;1.83;1.70;;;6.90;99.90;;;;;;5079627;28;20222;-59
2024/01/05 06:26:26;;;;;;;2.03;1.80;;;6.90;99.90;;;;;;5085499;28;20230;-59
2024/01/05 06:28:55;;;;;;;2.13;1.93;;;6.80;99.90;;;;;;5087406;28;20278;-58
2024/01/05 06:31:24;;;;;;;5.50;1.90;;;6.80;99.90;;;;;;5083521;28;20219;-59
2024/01/05 06:33:52;;;;;;;3.23;1.93;;;6.80;99.90;;;;;;5086762;27;20219;-59
2024/01/05 06:36:22;;;;;;;2.77;1.60;;;6.70;99.90;;;;;;5085101;28;20754;-59
2024/01/05 06:38:50;;;;;;;7.37;1.70;;;6.70;99.90;;;;;;5085927;28;20685;-59
2024/01/05 06:41:18;;;;;;;1.23;1.10;;;6.70;99.90;;;;;;5083975;28;20195;-58
2024/01/05 06:43:48;;;;;;;1.33;1.23;;;6.60;99.90;;;;;;5085717;28;20211;-60
2024/01/05 06:46:16;;;;;;;1.27;1.20;;;6.40;99.90;;;;;;5084383;28;20244;-60
2024/01/05 06:48:44;;;;;;;1.20;1.20;;;6.30;99.90;;;;;;5087110;28;20219;-61
2024/01/05 06:51:13;;;;;;;1.03;1.03;;;6.20;99.90;;;;;;5082050;28;20218;-60
2024/01/05 06:53:42;;;;;;;2.87;1.30;;;6.00;99.90;;;;;;5082624;27;20226;-60
2024/01/05 06:56:11;;;;;;;1.13;1.13;;;5.90;99.90;;;;;;5085644;28;20189;-60
2024/01/05 06:58:39;;;;;;;2.73;1.60;;;5.80;99.90;;;;;;5083323;28;20215;-60
2024/01/05 07:01:09;;;;;;;1.13;1.13;;;5.80;99.90;;;;;;5083830;28;21017;-60
2024/01/05 07:03:37;;;;;;;1.40;1.20;;;5.70;99.90;;;;;;5085896;28;20585;-60
2024/01/05 07:06:05;;;;;;;1.10;1.10;;;5.60;99.90;;;;;;5085131;28;20276;-61
2024/01/05 07:08:34;;;;;;;1.00;1.00;;;5.60;99.90;;;;;;5081190;28;20227;-60
2024/01/05 07:11:02;;;;;;;1.00;1.00;;;5.60;99.90;;;;;;5082154;28;20188;-61
2024/01/05 07:13:31;;;;;;;2.83;1.30;;;5.60;99.90;;;;;;5080445;28;20226;-60
2024/01/05 07:15:59;;;;;;;1.10;1.03;;;5.50;99.90;;;;;;5083208;28;20594;-60
2024/01/05 07:18:29;;;;;;;2.43;1.07;;;5.50;99.90;;;;;;5079638;28;20243;-59
2024/01/05 07:20:57;;;;;;;2.77;1.30;;;5.50;99.90;;;;;;5082506;28;20692;-60
2024/01/05 07:23:25;;;;;;;1.27;1.10;;;5.50;99.90;;;;;;5082956;28;20229;-60
2024/01/05 07:25:54;;;;;;;1.97;1.20;;;5.50;99.90;;;;;;5081288;28;20226;-60
2024/01/05 07:28:22;;;;;;;1.40;1.33;;;5.50;99.90;;;;;;5081457;28;20633;-60
2024/01/05 07:30:51;;;;;;;1.40;1.30;;;5.50;99.90;;;;;;5082051;28;20709;-60
2024/01/05 07:33:19;;;;;;;1.47;1.40;;;5.50;99.90;;;;;;5083732;28;20701;-60
2024/01/05 07:35:49;;;;;;;1.37;1.37;;;5.50;99.90;;;;;;5084686;28;20678;-60
2024/01/05 07:38:18;;;;;;;3.23;1.40;;;5.60;99.90;;;;;;5080360;28;20191;-60
2024/01/05 07:40:46;;;;;;;2.00;1.70;;;5.60;99.90;;;;;;5084300;28;20192;-60
2024/01/05 07:43:14;;;;;;;2.00;1.80;;;5.60;99.90;;;;;;5082092;28;20214;-60
2024/01/05 07:45:42;;;;;;;1.73;1.63;;;5.60;99.90;;;;;;5081596;28;20219;-60
2024/01/05 07:48:11;;;;;;;2.57;1.80;;;5.70;99.90;;;;;;5084893;28;20222;-60
2024/01/05 07:50:39;;;;;;;4.57;1.70;;;5.70;99.90;;;;;;5086169;28;20226;-60
2024/01/05 07:53:09;;;;;;;2.20;1.97;;;5.70;99.90;;;;;;5083205;28;20629;-58
2024/01/05 07:55:37;;;;;;;3.33;2.03;;;5.70;99.90;;;;;;5087226;28;20514;-61
2024/01/05 07:58:05;;;;;;;5.47;2.07;;;5.70;99.90;;;;;;5079720;28;20574;-60
2024/01/05 08:00:33;;;;;;;2.20;2.10;;;5.70;99.90;;;;;;5081423;28;20211;-60
2024/01/05 08:03:03;;;;;;;2.37;2.00;;;5.70;99.90;;;;;;5080678;27;20322;-60
2024/01/05 08:05:32;;;;;;;3.47;2.03;;;5.70;99.90;;;;;;5080090;28;20830;-60
2024/01/05 08:08:00;;;;;;;4.63;2.00;;;5.80;99.90;;;;;;5081407;28;20265;-60
2024/01/05 08:10:30;;;;;;;2.20;2.10;;;5.70;99.90;;;;;;5081629;28;20688;-61
2024/01/05 08:12:58;;;;;;;2.50;2.30;;;5.70;99.90;;;;;;5083415;28;20693;-60
2024/01/05 08:15:26;;;;;;;2.10;2.10;;;5.80;99.90;;;;;;5083210;28;20223;-61
2024/01/05 08:17:55;;;;;;;2.67;1.80;;;5.80;99.90;;;;;;5084622;28;20212;-60
2024/01/05 08:20:23;;;;;;;2.73;2.03;;;5.80;99.90;;;;;;5085129;28;20219;-60
2024/01/05 08:22:52;;;;;;;9.97;1.97;;;5.80;99.90;;;;;;5088273;28;20270;-60
2024/01/05 08:25:20;;;;;;;2.40;2.20;;;5.80;99.90;;;;;;5084559;28;20222;-60
2024/01/05 08:27:52;;;;;;;4.63;2.33;;;5.80;99.90;;;;;;5085181;28;20227;-60
2024/01/05 08:30:21;;;;;;;3.47;2.13;;;5.80;99.90;;;;;;5082787;28;20327;-61
2024/01/05 08:32:54;;;;;;;2.17;2.07;;;5.90;99.90;;;;;;5081921;28;20219;-60
2024/01/05 08:35:23;;;;;;;2.17;2.07;;;5.90;99.90;;;;;;5089612;28;20231;-60
2024/01/05 08:37:51;;;;;;;8.33;2.30;;;5.90;99.90;;;;;;5082597;28;20188;-60
2024/01/05 08:40:20;;;;;;;2.47;2.10;;;5.90;99.90;;;;;;5082810;28;20218;-60
2024/01/05 08:42:48;;;;;;;3.67;2.10;;;5.90;99.90;;;;;;5087073;28;20696;-60
2024/01/05 08:45:19;;;;;;;4.30;3.27;;;5.90;99.90;;;;;;5086295;28;20223;-60
2024/01/05 08:47:47;;;;;;;3.23;2.60;;;5.90;99.90;;;;;;5088461;28;20253;-60
2024/01/05 08:50:17;;;;;;;2.20;2.10;;;5.90;99.90;;;;;;5085748;28;20183;-60
2024/01/05 08:52:45;;;;;;;2.87;2.00;;;5.90;99.90;;;;;;5083748;28;20274;-60
2024/01/05 08:55:15;;;;;;;2.10;2.00;;;5.90;99.90;;;;;;5086093;27;20207;-60
2024/01/05 08:57:43;;;;;;;5.03;2.37;;;5.90;99.90;;;;;;5083780;28;20230;-60
2024/01/05 09:00:12;;;;;;;2.37;1.93;;;6.00;99.90;;;;;;5086977;28;20292;-60
2024/01/05 09:02:42;;;;;;;2.40;2.10;;;6.00;99.90;;;;;;5084898;28;22219;-60
2024/01/05 09:05:10;;;;;;;1.90;1.90;;;6.00;99.90;;;;;;5082908;28;20239;-60
2024/01/05 09:07:38;;;;;;;2.37;2.17;;;6.10;99.90;;;;;;5083803;28;20211;-59
2024/01/05 09:10:08;;;;;;;2.00;2.00;;;6.10;99.90;;;;;;5081866;28;20215;-60
2024/01/05 09:12:38;;;;;;;2.40;2.23;;;6.10;99.90;;;;;;5086319;28;20257;-59
2024/01/05 09:15:08;;;;;;;3.53;2.13;;;6.20;99.90;;;;;;5082983;28;20227;-60
2024/01/05 09:17:37;;;;;;;2.10;1.90;;;6.20;99.90;;;;;;5088108;28;20241;-60
2024/01/05 09:20:08;;;;;;;2.47;2.30;;;6.20;99.90;;;;;;5084691;28;20537;-61
2024/01/05 09:22:37;;;;;;;2.20;2.10;;;6.20;99.90;;;;;;5084701;28;20198;-60
2024/01/05 09:25:07;;;;;;;2.07;1.97;;;6.20;99.90;;;;;;5084918;28;20222;-60
2024/01/05 09:27:36;;;;;;;2.27;2.20;;;6.20;99.90;;;;;;5084862;28;20656;-60
2024/01/05 09:30:06;;;;;;;2.97;2.70;;;6.20;99.90;;;;;;5085387;28;20215;-60
2024/01/05 09:32:35;;;;;;;4.10;2.37;;;6.20;99.90;;;;;;5084007;28;20630;-60
2024/01/05 09:35:04;;;;;;;2.47;2.13;;;6.20;99.90;;;;;;5084854;28;20686;-60
2024/01/05 09:37:34;;;;;;;2.70;2.50;;;6.20;99.90;;;;;;5084890;28;20195;-60
2024/01/05 09:40:02;;;;;;;2.50;2.30;;;6.20;99.90;;;;;;5081535;28;20215;-59
2024/01/05 09:42:30;;;;;;;3.10;2.80;;;6.30;99.90;;;;;;5086375;28;20314;-60
2024/01/05 09:45:01;;;;;;;6.33;2.63;;;6.20;99.90;;;;;;5085701;28;20227;-60
2024/01/05 09:47:30;;;;;;;2.83;2.70;;;6.20;99.90;;;;;;5083489;28;20227;-60
2024/01/05 09:50:01;;;;;;;3.67;2.83;;;6.20;99.90;;;;;;5084969;28;20196;-60
2024/01/05 09:52:30;;;;;;;2.83;2.70;;;6.30;99.90;;;;;;5085233;28;20264;-60
2024/01/05 09:54:59;;;;;;;4.20;2.90;;;6.30;99.90;;;;;;5086493;27;20242;-60
2024/01/05 09:57:28;;;;;;;4.77;2.80;;;6.30;99.90;;;;;;5086771;28;20232;-60
2024/01/05 09:59:58;;;;;;;3.87;2.67;;;6.30;99.90;;;;;;5089343;28;20218;-60
2024/01/05 10:02:32;;;;;;;4.73;3.10;;;6.30;99.90;;;;;;5083794;28;20228;-60
2024/01/05 10:05:01;;;;;;;5.50;2.87;;;6.40;99.90;;;;;;5083742;28;20230;-60
2024/01/05 10:07:29;;;;;;;3.17;2.97;;;6.40;99.90;;;;;;4983117;28;20242;-60
2024/01/05 10:09:59;;;;;;;4.70;2.93;;;6.40;99.90;;;;;;4983981;28;20233;-61
2024/01/05 10:12:27;;;;;;;3.20;2.90;;;6.50;99.90;;;;;;5037465;28;20223;-60
2024/01/05 10:15:04;;;;;;;8.07;3.50;;;6.50;99.90;;;;;;5084761;28;20223;-60
2024/01/05 10:17:33;;;;;;;4.67;3.53;;;6.60;99.90;;;;;;5085171;28;20293;-61
2024/01/05 10:20:15;;;;;;;10.03;3.67;;;6.60;99.90;;;;;;5082888;28;20230;-60
2024/01/05 10:22:46;;;;;;;4.73;3.83;;;6.60;99.90;;;;;;5083226;28;20588;-61
2024/01/05 10:25:18;;;;;;;4.13;3.73;;;6.70;99.90;;;;;;5079753;28;20701;-60
2024/01/05 10:27:49;;;;;;;9.90;4.50;;;6.70;99.90;;;;;;5081924;28;20241;-60
2024/01/05 10:30:29;;;;;;;9.53;4.73;;;6.70;99.90;;;;;;5085364;28;20228;-60
2024/01/05 10:33:06;;;;;;;7.13;4.40;;;6.70;99.90;;;;;;5083118;27;20222;-60
2024/01/05 10:35:35;;;;;;;8.93;4.43;;;6.80;99.90;;;;;;5081870;28;20215;-59
2024/01/05 10:38:05;;;;;;;6.93;4.17;;;6.80;99.90;;;;;;5082375;28;20207;-59
2024/01/05 10:40:35;;;;;;;7.00;4.30;;;6.70;99.90;;;;;;5100877;28;20219;-60
2024/01/05 10:43:11;;;;;;;6.87;4.23;;;6.80;99.90;;;;;;5082131;28;20270;-60
2024/01/05 10:45:40;;;;;;;12.80;4.90;;;6.80;99.90;;;;;;5081221;28;20219;-60
2024/01/05 10:48:11;;;;;;;5.77;4.20;;;6.80;99.90;;;;;;5077239;28;20219;-60
2024/01/05 10:50:43;;;;;;;9.23;4.37;;;6.80;99.90;;;;;;5085707;28;20233;-60
2024/01/05 10:53:13;;;;;;;8.73;4.10;;;6.80;99.90;;;;;;5080174;28;20184;-60
2024/01/05 10:55:47;;;;;;;9.90;4.40;;;6.90;99.90;;;;;;5084315;28;20283;-58
2024/01/05 10:58:15;;;;;;;9.73;4.17;;;6.90;99.90;;;;;;5084352;28;20211;-60
2024/01/05 11:00:44;;;;;;;8.57;4.67;;;6.90;99.90;;;;;;5083417;28;20269;-60
2024/01/05 11:03:14;;;;;;;9.73;4.23;;;7.00;99.90;;;;;;5081956;28;20212;-60
2024/01/05 11:05:44;;;;;;;9.33;4.60;;;7.00;99.90;;;;;;5045965;28;20225;-59
2024/01/05 11:08:31;;;;;;;13.50;4.20;;;7.00;99.90;;;;;;5044958;28;20205;-59
2024/01/05 11:11:11;;;;;;;12.43;4.40;;;7.00;99.90;;;;;;5041146;28;20189;-59
2024/01/05 11:14:08;;;;;;;10.13;4.60;;;7.00;99.90;;;;;;5023905;28;20220;-60
2024/01/05 11:17:03;;;;;;;11.60;4.40;;;7.00;99.90;;;;;;5042087;28;20242;-60
2024/01/05 11:19:51;;;;;;;8.10;4.27;;;7.00;99.90;;;;;;5041978;28;20553;-61
2024/01/05 11:22:25;;;;;;;7.07;4.40;;;7.00;99.90;;;;;;5042929;28;20221;-60
2024/01/05 11:24:55;;;;;;;4.30;4.00;;;7.00;99.90;;;;;;5041159;28;20221;-60
2024/01/05 11:27:29;;;;;;;5.77;4.03;;;7.10;99.90;;;;;;5041839;28;20684;-59
2024/01/05 11:29:58;;;;;;;8.50;4.80;;;7.10;99.90;;;;;;5044663;28;20247;-59
2024/01/05 11:32:37;;;;;;;5.47;4.03;;;7.10;99.90;;;;;;5041260;28;20217;-59
2024/01/05 11:35:50;;;;;;;10.57;4.63;;;7.20;99.90;;;;;;5045286;28;20189;-59
2024/01/05 11:38:26;;;;;;;6.73;4.30;;;7.30;99.90;;;;;;5044528;28;20817;-59
2024/01/05 11:40:55;;;;;;;5.57;4.73;;;7.30;99.90;;;;;;5044177;28;20690;-59
2024/01/05 11:43:37;;;;;;;5.60;4.40;;;7.30;99.90;;;;;;5042110;28;20316;-59
2024/01/05 11:46:07;;;;;;;8.03;4.40;;;7.40;99.90;;;;;;5045529;28;20737;-59
2024/01/05 11:48:53;;;;;;;6.03;4.27;;;7.50;99.90;;;;;;5049313;28;20230;-59
2024/01/05 11:51:22;;;;;;;6.13;4.53;;;7.50;99.90;;;;;;5044918;28;20655;-59
2024/01/05 11:53:50;;;;;;;11.73;4.47;;;7.60;99.90;;;;;;5049680;28;20225;-59
2024/01/05 11:56:21;;;;;;;7.77;4.50;;;7.50;99.90;;;;;;5042299;28;20190;-59
2024/01/05 11:58:51;;;;;;;8.27;4.60;;;7.50;99.90;;;;;;5049025;28;20217;-59
2024/01/05 12:01:20;;;;;;;7.90;4.30;;;7.50;99.90;;;;;;5046888;28;20671;-60
2024/01/05 12:03:52;;;;;;;11.10;4.70;;;7.40;99.90;;;;;;5056416;28;20565;-58
2024/01/05 12:06:21;;;;;;;9.47;4.10;;;7.40;99.90;;;;;;5090380;28;20254;-59
2024/01/05 12:08:50;;;;;;;4.57;3.70;;;7.40;99.90;;;;;;5087928;28;20219;-59
2024/01/05 12:11:21;;;;;;;4.37;3.93;;;7.40;99.90;;;;;;5086840;28;20523;-59
2024/01/05 12:13:51;;;;;;;5.27;3.60;;;7.40;99.90;;;;;;5085986;28;20282;-59
2024/01/05 12:16:24;;;;;;;6.60;4.63;;;7.40;99.90;;;;;;5085803;28;20224;-60
2024/01/05 12:18:53;;;;;;;4.77;3.67;;;7.40;99.90;;;;;;5082429;28;20315;-60
2024/01/05 12:21:22;;;;;;;5.30;3.73;;;7.30;99.90;;;;;;5086341;28;20230;-59
2024/01/05 12:23:53;;;;;;;3.67;3.37;;;7.40;99.90;;;;;;5085796;28;20220;-59
2024/01/05 12:26:22;;;;;;;5.17;3.73;;;7.30;99.90;;;;;;5085652;28;20235;-59
2024/01/05 12:28:53;;;;;;;4.20;3.77;;;7.40;99.90;;;;;;5085022;28;20204;-59
2024/01/05 12:31:21;;;;;;;4.80;3.97;;;7.40;99.90;;;;;;5082542;28;20220;-59
2024/01/05 12:33:51;;;;;;;4.63;3.87;;;7.40;99.90;;;;;;5084654;27;20251;-62
2024/01/05 12:36:27;;;;;;;7.30;3.60;;;7.40;99.90;;;;;;5082290;27;20310;-59
2024/01/05 12:39:08;;;;;;;3.90;3.60;;;7.40;99.90;;;;;;5083209;28;20297;-59
2024/01/05 12:41:39;;;;;;;3.70;3.40;;;7.50;99.90;;;;;;5084831;27;20222;-59
2024/01/05 12:44:10;;;;;;;3.77;3.43;;;7.50;99.90;;;;;;5087722;28;20733;-60
2024/01/05 12:46:42;;;;;;;3.53;3.27;;;7.50;99.90;;;;;;5080034;28;20561;-60
2024/01/05 12:49:21;;;;;;;4.30;3.20;;;7.50;99.90;;;;;;5085530;28;20255;-61
2024/01/05 12:51:52;;;;;;;5.03;3.60;;;7.50;99.90;;;;;;5082123;28;20226;-58
2024/01/05 12:54:21;;;;;;;3.87;3.67;;;7.50;99.90;;;;;;5084117;28;20654;-60
2024/01/05 12:56:54;;;;;;;4.10;3.70;;;7.50;99.90;;;;;;5086427;28;20230;-59
2024/01/05 12:59:24;;;;;;;3.80;3.50;;;7.50;99.90;;;;;;5090559;28;20240;-60
2024/01/05 13:01:59;;;;;;;4.57;3.47;;;7.40;99.90;;;;;;5085738;28;20196;-61
2024/01/05 13:04:29;;;;;;;3.87;3.40;;;7.50;99.90;;;;;;5086489;28;21037;-60
2024/01/05 13:07:06;;;;;;;4.20;3.80;;;7.50;99.90;;;;;;5084976;28;20608;-60